Etna, New Hampshire
Current Conditions -  °F | °C
As of 8:53 AM on Thursday 18 Dec 2014 (Local Time) from KLEB Reporting Station
Overcast Overcast  
Wind Chill: 35°   Ceiling: 1900
Heat Index: 35°   Visibility: 10mi
Dew Point: 32°   Wind: 0mph
Humidity: 89%   Direction: NA
Pressure: 29.77"   Gusts: NA
Location:  43.69°N, 72.22°W
Report Text: KLEB 181353Z 00000KT 10SM BKN019 OVC027 02/00 A2977 RMK AO2 SLP089 T00170000
Loading
Personal Weather Stations






























Interactive Weather Map New forecast layout! Learn more

10-Day Weather Forecast

Advertisements
Track Severe Weather on mobile